Terminal Aerodrome Forecast
Issued by NWS San Angelo, TX

Current Version | Previous Version | Text Only | Print | Product List | Glossary Off
Versions: 1 2 3 4 5 6 7 8 9 10 11 12 13 14 15

000
FTUS44 KSJT 182325
TAFABI
TAF
KABI 182325Z 1900/1924 35015G25KT P6SM SCT250
     FM190100 36010KT P6SM FEW250
     FM190500 VRB03KT P6SM SKC
     FM192100 18010KT P6SM SKC=

USA.gov is the U.S. government's official web portal to all federal, state and local government web resources and services.